sensor_id;sensor_type;location;lat;lon;timestamp;P1;durP1;ratioP1;P2;durP2;ratioP2
18188;SDS011;9219;50.396;8.546;2022-08-21T00:01:32;13.03;;;6.90;;
18188;SDS011;9219;50.396;8.546;2022-08-21T00:04:03;9.47;;;5.73;;
18188;SDS011;9219;50.396;8.546;2022-08-21T00:06:32;13.07;;;5.90;;
18188;SDS011;9219;50.396;8.546;2022-08-21T00:14:00;11.70;;;7.27;;
18188;SDS011;9219;50.396;8.546;2022-08-21T00:16:28;9.00;;;6.60;;
18188;SDS011;9219;50.396;8.546;2022-08-21T00:18:56;11.87;;;6.40;;
18188;SDS011;9219;50.396;8.546;2022-08-21T00:21:24;9.60;;;6.63;;
18188;SDS011;9219;50.396;8.546;2022-08-21T00:23:54;10.40;;;6.33;;
18188;SDS011;9219;50.396;8.546;2022-08-21T00:26:22;9.53;;;6.37;;
18188;SDS011;9219;50.396;8.546;2022-08-21T00:28:50;11.57;;;5.87;;
18188;SDS011;9219;50.396;8.546;2022-08-21T00:36:30;10.70;;;6.67;;
18188;SDS011;9219;50.396;8.546;2022-08-21T00:42:54;9.77;;;6.80;;
18188;SDS011;9219;50.396;8.546;2022-08-21T00:45:23;8.17;;;6.70;;
18188;SDS011;9219;50.396;8.546;2022-08-21T00:47:53;10.53;;;6.83;;
18188;SDS011;9219;50.396;8.546;2022-08-21T00:50:22;10.43;;;6.83;;
18188;SDS011;9219;50.396;8.546;2022-08-21T00:52:54;12.03;;;7.00;;
18188;SDS011;9219;50.396;8.546;2022-08-21T01:00:30;13.03;;;9.63;;
18188;SDS011;9219;50.396;8.546;2022-08-21T01:03:01;13.07;;;8.63;;
18188;SDS011;9219;50.396;8.546;2022-08-21T01:05:34;13.30;;;9.13;;
18188;SDS011;9219;50.396;8.546;2022-08-21T01:08:02;13.37;;;8.93;;
18188;SDS011;9219;50.396;8.546;2022-08-21T01:10:31;12.20;;;9.53;;
18188;SDS011;9219;50.396;8.546;2022-08-21T01:12:59;12.53;;;9.30;;
18188;SDS011;9219;50.396;8.546;2022-08-21T01:15:31;19.63;;;10.20;;
18188;SDS011;9219;50.396;8.546;2022-08-21T01:23:06;12.67;;;9.50;;
18188;SDS011;9219;50.396;8.546;2022-08-21T01:25:34;10.47;;;9.07;;
18188;SDS011;9219;50.396;8.546;2022-08-21T01:28:10;11.33;;;9.50;;
18188;SDS011;9219;50.396;8.546;2022-08-21T01:30:40;11.93;;;9.97;;
18188;SDS011;9219;50.396;8.546;2022-08-21T01:33:10;13.77;;;10.37;;
18188;SDS011;9219;50.396;8.546;2022-08-21T01:35:38;15.57;;;8.40;;
18188;SDS011;9219;50.396;8.546;2022-08-21T01:38:07;18.47;;;9.00;;
18188;SDS011;9219;50.396;8.546;2022-08-21T01:45:40;13.83;;;8.97;;
18188;SDS011;9219;50.396;8.546;2022-08-21T01:48:08;13.37;;;9.00;;
18188;SDS011;9219;50.396;8.546;2022-08-21T01:50:35;13.00;;;8.97;;
18188;SDS011;9219;50.396;8.546;2022-08-21T01:53:03;15.60;;;10.03;;
18188;SDS011;9219;50.396;8.546;2022-08-21T01:55:31;16.80;;;9.50;;
18188;SDS011;9219;50.396;8.546;2022-08-21T01:57:59;11.47;;;8.77;;
18188;SDS011;9219;50.396;8.546;2022-08-21T02:00:27;12.73;;;8.73;;
18188;SDS011;9219;50.396;8.546;2022-08-21T02:08:01;11.93;;;7.90;;
18188;SDS011;9219;50.396;8.546;2022-08-21T02:10:29;11.73;;;7.90;;
18188;SDS011;9219;50.396;8.546;2022-08-21T02:12:58;14.90;;;8.20;;
18188;SDS011;9219;50.396;8.546;2022-08-21T02:15:26;14.50;;;8.07;;
18188;SDS011;9219;50.396;8.546;2022-08-21T02:17:56;14.27;;;7.60;;
18188;SDS011;9219;50.396;8.546;2022-08-21T02:20:26;20.13;;;7.90;;
18188;SDS011;9219;50.396;8.546;2022-08-21T02:22:57;9.63;;;6.63;;
18188;SDS011;9219;50.396;8.546;2022-08-21T02:30:32;11.73;;;8.03;;
18188;SDS011;9219;50.396;8.546;2022-08-21T02:33:04;18.80;;;8.27;;
18188;SDS011;9219;50.396;8.546;2022-08-21T02:35:31;14.27;;;7.97;;
18188;SDS011;9219;50.396;8.546;2022-08-21T02:38:00;12.60;;;7.50;;
18188;SDS011;9219;50.396;8.546;2022-08-21T02:40:31;17.77;;;8.43;;
18188;SDS011;9219;50.396;8.546;2022-08-21T02:43:00;15.37;;;8.30;;
18188;SDS011;9219;50.396;8.546;2022-08-21T02:45:29;15.57;;;8.60;;
18188;SDS011;9219;50.396;8.546;2022-08-21T02:52:44;12.53;;;8.40;;
18188;SDS011;9219;50.396;8.546;2022-08-21T02:55:17;14.03;;;8.43;;
18188;SDS011;9219;50.396;8.546;2022-08-21T02:57:46;16.50;;;8.23;;
18188;SDS011;9219;50.396;8.546;2022-08-21T03:00:14;15.27;;;8.13;;
18188;SDS011;9219;50.396;8.546;2022-08-21T03:02:42;17.63;;;8.23;;
18188;SDS011;9219;50.396;8.546;2022-08-21T03:05:12;11.47;;;7.60;;
18188;SDS011;9219;50.396;8.546;2022-08-21T03:07:42;14.17;;;8.10;;
18188;SDS011;9219;50.396;8.546;2022-08-21T03:15:15;13.13;;;6.57;;
18188;SDS011;9219;50.396;8.546;2022-08-21T03:17:45;9.80;;;7.17;;
18188;SDS011;9219;50.396;8.546;2022-08-21T03:20:14;13.80;;;7.13;;
18188;SDS011;9219;50.396;8.546;2022-08-21T03:22:42;15.00;;;7.10;;
18188;SDS011;9219;50.396;8.546;2022-08-21T03:25:22;13.80;;;5.83;;
18188;SDS011;9219;50.396;8.546;2022-08-21T03:28:08;14.70;;;6.50;;
18188;SDS011;9219;50.396;8.546;2022-08-21T03:30:41;11.33;;;5.83;;
18188;SDS011;9219;50.396;8.546;2022-08-21T03:38:14;9.83;;;5.97;;
18188;SDS011;9219;50.396;8.546;2022-08-21T03:40:42;10.87;;;6.17;;
18188;SDS011;9219;50.396;8.546;2022-08-21T03:43:10;14.47;;;6.30;;
18188;SDS011;9219;50.396;8.546;2022-08-21T03:45:38;15.23;;;6.23;;
18188;SDS011;9219;50.396;8.546;2022-08-21T03:48:07;15.33;;;5.80;;
18188;SDS011;9219;50.396;8.546;2022-08-21T03:50:37;11.53;;;5.97;;
18188;SDS011;9219;50.396;8.546;2022-08-21T03:53:07;12.97;;;5.97;;
18188;SDS011;9219;50.396;8.546;2022-08-21T04:03:13;13.60;;;6.83;;
18188;SDS011;9219;50.396;8.546;2022-08-21T04:05:42;12.03;;;7.03;;
18188;SDS011;9219;50.396;8.546;2022-08-21T04:08:11;13.73;;;6.67;;
18188;SDS011;9219;50.396;8.546;2022-08-21T04:10:41;10.07;;;6.33;;
18188;SDS011;9219;50.396;8.546;2022-08-21T04:13:13;19.77;;;6.80;;
18188;SDS011;9219;50.396;8.546;2022-08-21T04:15:41;12.67;;;6.07;;
18188;SDS011;9219;50.396;8.546;2022-08-21T04:18:09;12.60;;;5.37;;
18188;SDS011;9219;50.396;8.546;2022-08-21T04:25:27;14.13;;;5.70;;
18188;SDS011;9219;50.396;8.546;2022-08-21T04:27:55;8.53;;;5.90;;
18188;SDS011;9219;50.396;8.546;2022-08-21T04:30:28;15.10;;;5.60;;
18188;SDS011;9219;50.396;8.546;2022-08-21T04:32:56;22.03;;;7.07;;
18188;SDS011;9219;50.396;8.546;2022-08-21T04:35:26;14.33;;;6.40;;
18188;SDS011;9219;50.396;8.546;2022-08-21T04:37:57;14.83;;;6.27;;
18188;SDS011;9219;50.396;8.546;2022-08-21T04:40:26;13.73;;;6.87;;
18188;SDS011;9219;50.396;8.546;2022-08-21T04:45:51;14.77;;;7.07;;
18188;SDS011;9219;50.396;8.546;2022-08-21T04:48:21;13.37;;;6.43;;
18188;SDS011;9219;50.396;8.546;2022-08-21T04:50:52;19.43;;;7.13;;
18188;SDS011;9219;50.396;8.546;2022-08-21T04:53:24;14.13;;;6.77;;
18188;SDS011;9219;50.396;8.546;2022-08-21T04:55:56;18.50;;;7.53;;
18188;SDS011;9219;50.396;8.546;2022-08-21T04:58:27;19.23;;;7.20;;
18188;SDS011;9219;50.396;8.546;2022-08-21T05:00:59;16.53;;;6.43;;
18188;SDS011;9219;50.396;8.546;2022-08-21T05:03:28;11.83;;;6.47;;
18188;SDS011;9219;50.396;8.546;2022-08-21T05:10:58;17.23;;;7.20;;
18188;SDS011;9219;50.396;8.546;2022-08-21T05:13:26;13.03;;;5.90;;
18188;SDS011;9219;50.396;8.546;2022-08-21T05:15:54;14.03;;;7.10;;
18188;SDS011;9219;50.396;8.546;2022-08-21T05:18:22;12.87;;;6.57;;
18188;SDS011;9219;50.396;8.546;2022-08-21T05:20:50;16.13;;;7.00;;
18188;SDS011;9219;50.396;8.546;2022-08-21T05:23:18;17.50;;;7.13;;
18188;SDS011;9219;50.396;8.546;2022-08-21T05:25:46;12.63;;;6.40;;
18188;SDS011;9219;50.396;8.546;2022-08-21T05:28:15;13.17;;;6.40;;
18188;SDS011;9219;50.396;8.546;2022-08-21T05:36:11;13.67;;;6.57;;
18188;SDS011;9219;50.396;8.546;2022-08-21T05:38:40;8.33;;;6.27;;
18188;SDS011;9219;50.396;8.546;2022-08-21T05:41:09;12.73;;;6.97;;
18188;SDS011;9219;50.396;8.546;2022-08-21T05:43:37;14.10;;;6.03;;
18188;SDS011;9219;50.396;8.546;2022-08-21T05:46:05;15.07;;;6.00;;
18188;SDS011;9219;50.396;8.546;2022-08-21T05:48:35;13.03;;;6.97;;
18188;SDS011;9219;50.396;8.546;2022-08-21T05:51:04;14.97;;;5.40;;
18188;SDS011;9219;50.396;8.546;2022-08-21T05:58:38;13.57;;;6.23;;
18188;SDS011;9219;50.396;8.546;2022-08-21T06:01:05;16.73;;;5.70;;
18188;SDS011;9219;50.396;8.546;2022-08-21T06:03:36;8.50;;;5.80;;
18188;SDS011;9219;50.396;8.546;2022-08-21T06:06:06;10.63;;;5.30;;
18188;SDS011;9219;50.396;8.546;2022-08-21T06:08:35;9.10;;;5.10;;
18188;SDS011;9219;50.396;8.546;2022-08-21T06:11:04;7.73;;;4.97;;
18188;SDS011;9219;50.396;8.546;2022-08-21T06:13:33;11.03;;;5.00;;
18188;SDS011;9219;50.396;8.546;2022-08-21T06:16:05;11.70;;;5.77;;
18188;SDS011;9219;50.396;8.546;2022-08-21T06:23:45;13.83;;;5.73;;
18188;SDS011;9219;50.396;8.546;2022-08-21T06:26:13;11.03;;;5.50;;
18188;SDS011;9219;50.396;8.546;2022-08-21T06:28:41;16.33;;;6.40;;
18188;SDS011;9219;50.396;8.546;2022-08-21T06:31:10;9.30;;;5.10;;
18188;SDS011;9219;50.396;8.546;2022-08-21T06:33:40;7.73;;;4.73;;
18188;SDS011;9219;50.396;8.546;2022-08-21T06:36:07;9.87;;;5.83;;
18188;SDS011;9219;50.396;8.546;2022-08-21T06:38:37;11.27;;;5.87;;
18188;SDS011;9219;50.396;8.546;2022-08-21T06:45:27;14.87;;;6.90;;
18188;SDS011;9219;50.396;8.546;2022-08-21T06:47:58;21.70;;;7.50;;
18188;SDS011;9219;50.396;8.546;2022-08-21T06:50:25;10.23;;;5.60;;
18188;SDS011;9219;50.396;8.546;2022-08-21T06:52:58;11.43;;;5.77;;
18188;SDS011;9219;50.396;8.546;2022-08-21T06:55:26;9.30;;;5.23;;
18188;SDS011;9219;50.396;8.546;2022-08-21T06:57:55;13.53;;;6.33;;
18188;SDS011;9219;50.396;8.546;2022-08-21T07:00:23;11.03;;;5.17;;
18188;SDS011;9219;50.396;8.546;2022-08-21T07:02:53;10.57;;;5.60;;
18188;SDS011;9219;50.396;8.546;2022-08-21T07:05:21;9.57;;;5.50;;
18188;SDS011;9219;50.396;8.546;2022-08-21T07:10:31;16.83;;;6.97;;
18188;SDS011;9219;50.396;8.546;2022-08-21T07:12:58;9.50;;;6.23;;
18188;SDS011;9219;50.396;8.546;2022-08-21T07:15:27;13.20;;;5.13;;
18188;SDS011;9219;50.396;8.546;2022-08-21T07:17:56;14.20;;;5.73;;
18188;SDS011;9219;50.396;8.546;2022-08-21T07:20:23;20.23;;;6.00;;
18188;SDS011;9219;50.396;8.546;2022-08-21T07:22:51;18.17;;;6.10;;
18188;SDS011;9219;50.396;8.546;2022-08-21T07:25:19;13.13;;;6.03;;
18188;SDS011;9219;50.396;8.546;2022-08-21T07:32:57;15.70;;;7.63;;
18188;SDS011;9219;50.396;8.546;2022-08-21T07:35:25;19.07;;;6.60;;
18188;SDS011;9219;50.396;8.546;2022-08-21T07:37:53;16.40;;;7.37;;
18188;SDS011;9219;50.396;8.546;2022-08-21T07:40:22;12.37;;;7.10;;
18188;SDS011;9219;50.396;8.546;2022-08-21T07:42:50;11.37;;;5.87;;
18188;SDS011;9219;50.396;8.546;2022-08-21T07:45:19;14.73;;;6.40;;
18188;SDS011;9219;50.396;8.546;2022-08-21T07:47:47;12.73;;;7.10;;
18188;SDS011;9219;50.396;8.546;2022-08-21T07:55:57;13.87;;;6.83;;
18188;SDS011;9219;50.396;8.546;2022-08-21T07:58:25;13.07;;;6.67;;
18188;SDS011;9219;50.396;8.546;2022-08-21T08:00:53;14.33;;;6.43;;
18188;SDS011;9219;50.396;8.546;2022-08-21T08:03:21;11.17;;;5.50;;
18188;SDS011;9219;50.396;8.546;2022-08-21T08:05:55;10.57;;;4.97;;
18188;SDS011;9219;50.396;8.546;2022-08-21T08:08:23;15.83;;;6.53;;
18188;SDS011;9219;50.396;8.546;2022-08-21T08:10:51;13.03;;;5.90;;
18188;SDS011;9219;50.396;8.546;2022-08-21T08:17:40;10.73;;;5.87;;
18188;SDS011;9219;50.396;8.546;2022-08-21T08:20:08;12.07;;;4.83;;
18188;SDS011;9219;50.396;8.546;2022-08-21T08:22:40;12.00;;;5.37;;
18188;SDS011;9219;50.396;8.546;2022-08-21T08:25:16;14.73;;;4.97;;
18188;SDS011;9219;50.396;8.546;2022-08-21T08:27:49;14.20;;;4.53;;
18188;SDS011;9219;50.396;8.546;2022-08-21T08:30:17;10.87;;;3.80;;
18188;SDS011;9219;50.396;8.546;2022-08-21T08:32:48;9.43;;;3.27;;
18188;SDS011;9219;50.396;8.546;2022-08-21T08:40:28;11.97;;;3.87;;
18188;SDS011;9219;50.396;8.546;2022-08-21T08:43:08;10.73;;;3.93;;
18188;SDS011;9219;50.396;8.546;2022-08-21T08:45:40;7.60;;;3.60;;
18188;SDS011;9219;50.396;8.546;2022-08-21T08:48:13;8.93;;;3.30;;
18188;SDS011;9219;50.396;8.546;2022-08-21T08:50:54;9.37;;;3.27;;
18188;SDS011;9219;50.396;8.546;2022-08-21T08:53:25;9.03;;;3.30;;
18188;SDS011;9219;50.396;8.546;2022-08-21T08:56:02;9.50;;;3.33;;
18188;SDS011;9219;50.396;8.546;2022-08-21T09:03:38;8.00;;;2.97;;
18188;SDS011;9219;50.396;8.546;2022-08-21T09:06:09;7.70;;;2.90;;
18188;SDS011;9219;50.396;8.546;2022-08-21T09:08:53;10.83;;;3.27;;
18188;SDS011;9219;50.396;8.546;2022-08-21T09:11:30;10.50;;;3.57;;
18188;SDS011;9219;50.396;8.546;2022-08-21T09:14:07;6.50;;;2.87;;
18188;SDS011;9219;50.396;8.546;2022-08-21T09:16:46;16.00;;;4.13;;
18188;SDS011;9219;50.396;8.546;2022-08-21T09:19:23;9.50;;;4.27;;
18188;SDS011;9219;50.396;8.546;2022-08-21T09:27:07;7.40;;;3.83;;
18188;SDS011;9219;50.396;8.546;2022-08-21T09:29:40;10.37;;;3.70;;
18188;SDS011;9219;50.396;8.546;2022-08-21T09:32:11;14.40;;;3.60;;
18188;SDS011;9219;50.396;8.546;2022-08-21T09:34:54;12.37;;;5.63;;
18188;SDS011;9219;50.396;8.546;2022-08-21T09:37:24;12.63;;;4.33;;
18188;SDS011;9219;50.396;8.546;2022-08-21T09:39:52;9.07;;;3.80;;
18188;SDS011;9219;50.396;8.546;2022-08-21T09:42:25;7.53;;;3.70;;
18188;SDS011;9219;50.396;8.546;2022-08-21T09:47:49;11.40;;;4.77;;
18188;SDS011;9219;50.396;8.546;2022-08-21T09:50:20;8.43;;;3.27;;
18188;SDS011;9219;50.396;8.546;2022-08-21T09:52:51;7.43;;;3.90;;
18188;SDS011;9219;50.396;8.546;2022-08-21T09:55:33;8.07;;;3.80;;
18188;SDS011;9219;50.396;8.546;2022-08-21T09:58:29;11.40;;;3.43;;
18188;SDS011;9219;50.396;8.546;2022-08-21T10:00:58;8.70;;;3.47;;
18188;SDS011;9219;50.396;8.546;2022-08-21T10:09:07;9.80;;;3.57;;
18188;SDS011;9219;50.396;8.546;2022-08-21T10:11:50;13.47;;;4.27;;
18188;SDS011;9219;50.396;8.546;2022-08-21T10:14:30;7.60;;;3.60;;
18188;SDS011;9219;50.396;8.546;2022-08-21T10:17:10;5.27;;;2.53;;
18188;SDS011;9219;50.396;8.546;2022-08-21T10:19:46;9.90;;;2.77;;
18188;SDS011;9219;50.396;8.546;2022-08-21T10:22:24;13.27;;;3.80;;
18188;SDS011;9219;50.396;8.546;2022-08-21T10:30:50;9.83;;;3.03;;
18188;SDS011;9219;50.396;8.546;2022-08-21T10:33:26;7.80;;;2.83;;
18188;SDS011;9219;50.396;8.546;2022-08-21T10:36:02;7.37;;;2.70;;
18188;SDS011;9219;50.396;8.546;2022-08-21T10:42:07;4.23;;;2.40;;
18188;SDS011;9219;50.396;8.546;2022-08-21T10:44:56;5.70;;;2.30;;
18188;SDS011;9219;50.396;8.546;2022-08-21T10:50:25;7.67;;;2.20;;
18188;SDS011;9219;50.396;8.546;2022-08-21T10:53:05;6.13;;;3.07;;
18188;SDS011;9219;50.396;8.546;2022-08-21T10:55:55;5.50;;;2.20;;
18188;SDS011;9219;50.396;8.546;2022-08-21T10:58:28;3.87;;;1.93;;
18188;SDS011;9219;50.396;8.546;2022-08-21T11:01:01;5.07;;;2.17;;
18188;SDS011;9219;50.396;8.546;2022-08-21T11:03:37;6.90;;;2.20;;
18188;SDS011;9219;50.396;8.546;2022-08-21T11:12:05;4.20;;;2.43;;
18188;SDS011;9219;50.396;8.546;2022-08-21T11:14:48;5.07;;;2.30;;
18188;SDS011;9219;50.396;8.546;2022-08-21T11:17:24;3.93;;;1.80;;
18188;SDS011;9219;50.396;8.546;2022-08-21T11:20:02;3.77;;;1.63;;
18188;SDS011;9219;50.396;8.546;2022-08-21T11:22:35;2.77;;;1.60;;
18188;SDS011;9219;50.396;8.546;2022-08-21T11:25:09;5.10;;;2.17;;
18188;SDS011;9219;50.396;8.546;2022-08-21T11:27:46;9.13;;;1.90;;
18188;SDS011;9219;50.396;8.546;2022-08-21T11:34:35;3.67;;;1.90;;
18188;SDS011;9219;50.396;8.546;2022-08-21T11:37:17;5.23;;;2.07;;
18188;SDS011;9219;50.396;8.546;2022-08-21T11:39:55;5.77;;;2.60;;
18188;SDS011;9219;50.396;8.546;2022-08-21T11:42:30;5.30;;;1.63;;
18188;SDS011;9219;50.396;8.546;2022-08-21T11:45:09;5.17;;;1.70;;
18188;SDS011;9219;50.396;8.546;2022-08-21T11:47:48;6.30;;;1.83;;
18188;SDS011;9219;50.396;8.546;2022-08-21T11:50:25;4.73;;;2.20;;
18188;SDS011;9219;50.396;8.546;2022-08-21T11:57:58;4.07;;;1.97;;
18188;SDS011;9219;50.396;8.546;2022-08-21T12:00:29;5.30;;;2.10;;
18188;SDS011;9219;50.396;8.546;2022-08-21T12:03:07;5.07;;;1.47;;
18188;SDS011;9219;50.396;8.546;2022-08-21T12:05:40;3.90;;;1.63;;
18188;SDS011;9219;50.396;8.546;2022-08-21T12:08:12;5.77;;;2.17;;
18188;SDS011;9219;50.396;8.546;2022-08-21T12:10:45;2.77;;;1.60;;
18188;SDS011;9219;50.396;8.546;2022-08-21T12:13:31;3.67;;;1.50;;
18188;SDS011;9219;50.396;8.546;2022-08-21T12:21:20;1.70;;;1.37;;
18188;SDS011;9219;50.396;8.546;2022-08-21T12:23:59;2.67;;;1.43;;
18188;SDS011;9219;50.396;8.546;2022-08-21T12:26:32;4.07;;;1.70;;
18188;SDS011;9219;50.396;8.546;2022-08-21T12:29:07;3.37;;;1.83;;
18188;SDS011;9219;50.396;8.546;2022-08-21T12:34:34;6.33;;;2.33;;
18188;SDS011;9219;50.396;8.546;2022-08-21T12:37:09;5.30;;;1.80;;
18188;SDS011;9219;50.396;8.546;2022-08-21T12:44:49;2.87;;;1.63;;
18188;SDS011;9219;50.396;8.546;2022-08-21T12:47:24;5.07;;;1.73;;
18188;SDS011;9219;50.396;8.546;2022-08-21T12:50:00;3.23;;;1.83;;
18188;SDS011;9219;50.396;8.546;2022-08-21T12:52:33;5.37;;;1.70;;
18188;SDS011;9219;50.396;8.546;2022-08-21T12:55:06;3.63;;;1.70;;
18188;SDS011;9219;50.396;8.546;2022-08-21T12:57:39;4.37;;;2.10;;
18188;SDS011;9219;50.396;8.546;2022-08-21T13:00:11;6.57;;;2.37;;
18188;SDS011;9219;50.396;8.546;2022-08-21T13:10:20;7.23;;;2.07;;
18188;SDS011;9219;50.396;8.546;2022-08-21T13:12:50;2.47;;;1.70;;
18188;SDS011;9219;50.396;8.546;2022-08-21T13:15:25;4.80;;;1.80;;
18188;SDS011;9219;50.396;8.546;2022-08-21T13:17:59;6.53;;;1.60;;
18188;SDS011;9219;50.396;8.546;2022-08-21T13:20:32;5.63;;;1.60;;
18188;SDS011;9219;50.396;8.546;2022-08-21T13:23:06;3.87;;;1.70;;
18188;SDS011;9219;50.396;8.546;2022-08-21T13:25:45;8.97;;;1.70;;
18188;SDS011;9219;50.396;8.546;2022-08-21T13:28:13;4.53;;;1.83;;
18188;SDS011;9219;50.396;8.546;2022-08-21T13:35:50;7.43;;;1.97;;
18188;SDS011;9219;50.396;8.546;2022-08-21T13:38:32;4.27;;;1.20;;
18188;SDS011;9219;50.396;8.546;2022-08-21T13:41:09;2.97;;;1.17;;
18188;SDS011;9219;50.396;8.546;2022-08-21T13:43:49;5.07;;;1.40;;
18188;SDS011;9219;50.396;8.546;2022-08-21T13:46:26;8.53;;;2.63;;
18188;SDS011;9219;50.396;8.546;2022-08-21T13:48:59;5.43;;;2.00;;
18188;SDS011;9219;50.396;8.546;2022-08-21T13:51:32;6.77;;;2.27;;
18188;SDS011;9219;50.396;8.546;2022-08-21T13:56:55;2.10;;;1.80;;
18188;SDS011;9219;50.396;8.546;2022-08-21T13:59:24;4.23;;;2.00;;
18188;SDS011;9219;50.396;8.546;2022-08-21T14:01:54;4.33;;;1.50;;
18188;SDS011;9219;50.396;8.546;2022-08-21T14:04:35;2.17;;;1.47;;
18188;SDS011;9219;50.396;8.546;2022-08-21T14:07:18;4.10;;;1.93;;
18188;SDS011;9219;50.396;8.546;2022-08-21T14:09:53;3.87;;;1.57;;
18188;SDS011;9219;50.396;8.546;2022-08-21T14:12:26;4.17;;;2.07;;
18188;SDS011;9219;50.396;8.546;2022-08-21T14:15:26;9.67;;;2.97;;
18188;SDS011;9219;50.396;8.546;2022-08-21T14:18:09;5.40;;;1.30;;
18188;SDS011;9219;50.396;8.546;2022-08-21T14:20:49;5.43;;;1.47;;
18188;SDS011;9219;50.396;8.546;2022-08-21T14:23:28;4.00;;;1.70;;
18188;SDS011;9219;50.396;8.546;2022-08-21T14:25:58;5.97;;;1.70;;
18188;SDS011;9219;50.396;8.546;2022-08-21T14:28:29;3.67;;;1.97;;
18188;SDS011;9219;50.396;8.546;2022-08-21T14:34:08;2.67;;;1.40;;
18188;SDS011;9219;50.396;8.546;2022-08-21T14:36:45;2.97;;;1.40;;
18188;SDS011;9219;50.396;8.546;2022-08-21T14:39:14;1.80;;;1.40;;
18188;SDS011;9219;50.396;8.546;2022-08-21T14:41:42;2.37;;;1.37;;
18188;SDS011;9219;50.396;8.546;2022-08-21T14:44:13;1.90;;;1.47;;
18188;SDS011;9219;50.396;8.546;2022-08-21T14:46:45;4.90;;;1.53;;
18188;SDS011;9219;50.396;8.546;2022-08-21T14:49:25;4.77;;;1.80;;
18188;SDS011;9219;50.396;8.546;2022-08-21T14:56:20;2.13;;;1.33;;
18188;SDS011;9219;50.396;8.546;2022-08-21T14:58:49;5.97;;;1.50;;
18188;SDS011;9219;50.396;8.546;2022-08-21T15:01:19;3.30;;;1.27;;
18188;SDS011;9219;50.396;8.546;2022-08-21T15:03:50;4.73;;;1.97;;
18188;SDS011;9219;50.396;8.546;2022-08-21T15:06:19;3.23;;;1.20;;
18188;SDS011;9219;50.396;8.546;2022-08-21T15:08:48;3.23;;;1.33;;
18188;SDS011;9219;50.396;8.546;2022-08-21T15:11:18;4.53;;;1.30;;
18188;SDS011;9219;50.396;8.546;2022-08-21T15:16:44;4.53;;;1.40;;
18188;SDS011;9219;50.396;8.546;2022-08-21T15:19:14;3.30;;;1.20;;
18188;SDS011;9219;50.396;8.546;2022-08-21T15:21:41;1.20;;;1.00;;
18188;SDS011;9219;50.396;8.546;2022-08-21T15:24:11;2.57;;;1.10;;
18188;SDS011;9219;50.396;8.546;2022-08-21T15:26:39;1.50;;;1.03;;
18188;SDS011;9219;50.396;8.546;2022-08-21T15:29:09;4.27;;;1.40;;
18188;SDS011;9219;50.396;8.546;2022-08-21T15:31:37;2.13;;;1.60;;
18188;SDS011;9219;50.396;8.546;2022-08-21T15:39:11;1.67;;;1.20;;
18188;SDS011;9219;50.396;8.546;2022-08-21T15:41:41;2.73;;;1.00;;
18188;SDS011;9219;50.396;8.546;2022-08-21T15:44:16;3.33;;;1.33;;
18188;SDS011;9219;50.396;8.546;2022-08-21T15:46:44;5.20;;;1.47;;
18188;SDS011;9219;50.396;8.546;2022-08-21T15:49:11;3.57;;;1.70;;
18188;SDS011;9219;50.396;8.546;2022-08-21T15:51:41;2.50;;;1.40;;
18188;SDS011;9219;50.396;8.546;2022-08-21T15:54:13;4.17;;;1.73;;
18188;SDS011;9219;50.396;8.546;2022-08-21T16:01:46;2.53;;;1.43;;
18188;SDS011;9219;50.396;8.546;2022-08-21T16:04:18;3.53;;;1.60;;
18188;SDS011;9219;50.396;8.546;2022-08-21T16:06:50;2.20;;;1.23;;
18188;SDS011;9219;50.396;8.546;2022-08-21T16:09:21;3.97;;;1.43;;
18188;SDS011;9219;50.396;8.546;2022-08-21T16:11:51;3.93;;;1.60;;
18188;SDS011;9219;50.396;8.546;2022-08-21T16:14:19;1.93;;;1.33;;
18188;SDS011;9219;50.396;8.546;2022-08-21T16:16:47;4.13;;;1.53;;
18188;SDS011;9219;50.396;8.546;2022-08-21T16:24:22;2.43;;;1.40;;
18188;SDS011;9219;50.396;8.546;2022-08-21T16:26:49;4.13;;;1.60;;
18188;SDS011;9219;50.396;8.546;2022-08-21T16:29:23;3.00;;;1.33;;
18188;SDS011;9219;50.396;8.546;2022-08-21T16:31:54;2.50;;;1.67;;
18188;SDS011;9219;50.396;8.546;2022-08-21T16:34:23;4.37;;;2.00;;
18188;SDS011;9219;50.396;8.546;2022-08-21T16:36:51;2.53;;;1.20;;
18188;SDS011;9219;50.396;8.546;2022-08-21T16:39:19;3.30;;;1.53;;
18188;SDS011;9219;50.396;8.546;2022-08-21T16:46:51;4.27;;;1.83;;
18188;SDS011;9219;50.396;8.546;2022-08-21T16:49:19;2.07;;;1.30;;
18188;SDS011;9219;50.396;8.546;2022-08-21T16:51:48;4.50;;;1.50;;
18188;SDS011;9219;50.396;8.546;2022-08-21T16:54:16;5.00;;;1.60;;
18188;SDS011;9219;50.396;8.546;2022-08-21T16:56:43;2.77;;;1.70;;
18188;SDS011;9219;50.396;8.546;2022-08-21T16:59:13;2.13;;;1.30;;
18188;SDS011;9219;50.396;8.546;2022-08-21T17:01:43;2.90;;;1.60;;
18188;SDS011;9219;50.396;8.546;2022-08-21T17:09:21;2.13;;;1.30;;
18188;SDS011;9219;50.396;8.546;2022-08-21T17:12:04;2.50;;;1.40;;
18188;SDS011;9219;50.396;8.546;2022-08-21T17:14:33;2.77;;;1.57;;
18188;SDS011;9219;50.396;8.546;2022-08-21T17:17:03;2.87;;;1.40;;
18188;SDS011;9219;50.396;8.546;2022-08-21T17:19:34;2.73;;;1.37;;
18188;SDS011;9219;50.396;8.546;2022-08-21T17:22:08;4.97;;;1.47;;
18188;SDS011;9219;50.396;8.546;2022-08-21T17:24:38;4.67;;;1.30;;
18188;SDS011;9219;50.396;8.546;2022-08-21T17:32:08;3.47;;;1.20;;
18188;SDS011;9219;50.396;8.546;2022-08-21T17:34:38;5.07;;;1.77;;
18188;SDS011;9219;50.396;8.546;2022-08-21T17:37:06;5.90;;;1.60;;
18188;SDS011;9219;50.396;8.546;2022-08-21T17:39:35;4.20;;;1.80;;
18188;SDS011;9219;50.396;8.546;2022-08-21T17:42:04;6.90;;;1.80;;
18188;SDS011;9219;50.396;8.546;2022-08-21T17:44:36;2.77;;;1.30;;
18188;SDS011;9219;50.396;8.546;2022-08-21T17:47:04;4.57;;;2.00;;
18188;SDS011;9219;50.396;8.546;2022-08-21T17:54:39;3.43;;;1.80;;
18188;SDS011;9219;50.396;8.546;2022-08-21T17:57:07;5.23;;;1.60;;
18188;SDS011;9219;50.396;8.546;2022-08-21T17:59:44;4.63;;;1.57;;
18188;SDS011;9219;50.396;8.546;2022-08-21T18:02:12;4.30;;;1.30;;
18188;SDS011;9219;50.396;8.546;2022-08-21T18:04:45;3.07;;;1.40;;
18188;SDS011;9219;50.396;8.546;2022-08-21T18:07:16;7.27;;;1.87;;
18188;SDS011;9219;50.396;8.546;2022-08-21T18:09:59;2.70;;;1.27;;
18188;SDS011;9219;50.396;8.546;2022-08-21T18:17:29;6.20;;;1.50;;
18188;SDS011;9219;50.396;8.546;2022-08-21T18:19:59;5.63;;;1.50;;
18188;SDS011;9219;50.396;8.546;2022-08-21T18:22:28;5.97;;;1.87;;
18188;SDS011;9219;50.396;8.546;2022-08-21T18:24:56;5.67;;;2.20;;
18188;SDS011;9219;50.396;8.546;2022-08-21T18:27:26;4.83;;;1.10;;
18188;SDS011;9219;50.396;8.546;2022-08-21T18:29:56;4.97;;;1.70;;
18188;SDS011;9219;50.396;8.546;2022-08-21T18:32:27;1.33;;;1.07;;
18188;SDS011;9219;50.396;8.546;2022-08-21T18:35:00;2.87;;;1.80;;
18188;SDS011;9219;50.396;8.546;2022-08-21T18:42:44;3.00;;;1.50;;
18188;SDS011;9219;50.396;8.546;2022-08-21T18:45:24;3.53;;;1.20;;
18188;SDS011;9219;50.396;8.546;2022-08-21T18:47:54;3.87;;;1.73;;
18188;SDS011;9219;50.396;8.546;2022-08-21T18:50:24;4.20;;;1.57;;
18188;SDS011;9219;50.396;8.546;2022-08-21T18:52:54;3.57;;;1.50;;
18188;SDS011;9219;50.396;8.546;2022-08-21T18:55:23;2.73;;;1.43;;
18188;SDS011;9219;50.396;8.546;2022-08-21T18:57:54;2.40;;;1.30;;
18188;SDS011;9219;50.396;8.546;2022-08-21T19:05:29;8.50;;;1.37;;
18188;SDS011;9219;50.396;8.546;2022-08-21T19:07:58;1.87;;;1.37;;
18188;SDS011;9219;50.396;8.546;2022-08-21T19:10:26;4.40;;;1.30;;
18188;SDS011;9219;50.396;8.546;2022-08-21T19:12:56;4.20;;;1.37;;
18188;SDS011;9219;50.396;8.546;2022-08-21T19:15:32;3.70;;;1.40;;
18188;SDS011;9219;50.396;8.546;2022-08-21T19:18:09;1.23;;;1.00;;
18188;SDS011;9219;50.396;8.546;2022-08-21T19:20:42;3.90;;;0.90;;
18188;SDS011;9219;50.396;8.546;2022-08-21T19:28:20;2.93;;;1.47;;
18188;SDS011;9219;50.396;8.546;2022-08-21T19:30:55;4.87;;;1.07;;
18188;SDS011;9219;50.396;8.546;2022-08-21T19:33:32;2.37;;;1.10;;
18188;SDS011;9219;50.396;8.546;2022-08-21T19:36:09;2.93;;;1.43;;
18188;SDS011;9219;50.396;8.546;2022-08-21T19:38:37;3.27;;;1.30;;
18188;SDS011;9219;50.396;8.546;2022-08-21T19:41:06;3.37;;;1.00;;